createdAt,value
2022-09-24T00:00:51.268Z,14.60
2022-09-24T00:03:23.056Z,14.70
2022-09-24T00:08:32.902Z,14.70
2022-09-24T00:11:06.559Z,14.70
2022-09-24T00:13:38.113Z,14.60
2022-09-24T00:16:11.480Z,14.60
2022-09-24T00:18:42.658Z,14.60
2022-09-24T00:21:19.091Z,14.60
2022-09-24T00:23:54.252Z,14.60
2022-09-24T00:26:43.369Z,14.60
2022-09-24T00:29:16.775Z,14.60
2022-09-24T00:31:47.577Z,14.60
2022-09-24T00:34:18.720Z,14.70
2022-09-24T00:36:49.415Z,14.70
2022-09-24T00:39:19.991Z,14.60
2022-09-24T00:41:50.525Z,14.60
2022-09-24T00:44:53.807Z,14.60
2022-09-24T00:47:35.164Z,14.60
2022-09-24T00:50:18.927Z,14.60
2022-09-24T00:52:53.894Z,14.60
2022-09-24T00:55:26.249Z,14.60
2022-09-24T00:57:59.372Z,14.60
2022-09-24T01:00:31.325Z,14.60
2022-09-24T01:05:42.199Z,14.60
2022-09-24T01:08:16.396Z,14.60
2022-09-24T01:11:09.478Z,14.60
2022-09-24T01:13:49.681Z,14.60
2022-09-24T01:19:04.245Z,14.60
2022-09-24T01:21:39.922Z,14.60
2022-09-24T01:24:31.025Z,14.60
2022-09-24T01:27:06.571Z,14.60
2022-09-24T01:29:46.859Z,14.50
2022-09-24T01:32:21.277Z,14.50
2022-09-24T01:34:54.596Z,14.50
2022-09-24T01:37:27.257Z,14.50
2022-09-24T01:39:59.718Z,14.50
2022-09-24T01:42:32.610Z,14.50
2022-09-24T01:45:05.432Z,14.40
2022-09-24T01:47:40.130Z,14.50
2022-09-24T01:50:14.665Z,14.40
2022-09-24T01:52:48.528Z,14.40
2022-09-24T01:55:22.058Z,14.40
2022-09-24T01:57:55.843Z,14.40
2022-09-24T02:00:27.496Z,14.40
2022-09-24T02:03:01.511Z,14.40
2022-09-24T02:05:35.997Z,14.40
2022-09-24T02:08:09.766Z,14.40
2022-09-24T02:10:46.236Z,14.40
2022-09-24T02:13:18.729Z,14.40
2022-09-24T02:15:52.325Z,14.40
2022-09-24T02:18:26.641Z,14.30
2022-09-24T02:20:58.836Z,14.40
2022-09-24T02:23:32.449Z,14.40
2022-09-24T02:26:03.389Z,14.40
2022-09-24T02:28:35.180Z,14.40
2022-09-24T02:31:09.299Z,14.40
2022-09-24T02:34:00.390Z,14.40
2022-09-24T02:36:32.028Z,14.40
2022-09-24T02:39:03.522Z,14.40
2022-09-24T02:41:35.381Z,14.30
2022-09-24T02:44:05.950Z,14.30
2022-09-24T02:46:36.681Z,14.30
2022-09-24T02:49:07.239Z,14.30
2022-09-24T02:51:38.006Z,14.30
2022-09-24T02:54:09.403Z,14.30
2022-09-24T02:56:40.572Z,14.30
2022-09-24T02:59:12.333Z,14.30
2022-09-24T03:01:43.233Z,14.30
2022-09-24T03:04:14.975Z,14.30
2022-09-24T03:06:45.818Z,14.20
2022-09-24T03:09:16.730Z,14.30
2022-09-24T03:11:47.449Z,14.30
2022-09-24T03:14:17.973Z,14.30
2022-09-24T03:16:48.525Z,14.30
2022-09-24T03:19:19.262Z,14.30
2022-09-24T03:21:49.825Z,14.30
2022-09-24T03:24:20.410Z,14.20
2022-09-24T03:26:50.954Z,14.20
2022-09-24T03:29:23.744Z,14.20
2022-09-24T03:31:54.334Z,14.20
2022-09-24T03:34:24.928Z,14.30
2022-09-24T03:36:55.558Z,14.20
2022-09-24T03:39:26.247Z,14.20
2022-09-24T03:41:56.757Z,14.20
2022-09-24T03:44:27.422Z,14.20
2022-09-24T03:46:57.976Z,14.20
2022-09-24T03:49:28.642Z,14.20
2022-09-24T03:51:59.198Z,14.20
2022-09-24T03:54:29.744Z,14.20
2022-09-24T03:57:00.303Z,14.20
2022-09-24T03:59:30.847Z,14.20
2022-09-24T04:02:01.633Z,14.20
2022-09-24T04:04:32.207Z,14.20
2022-09-24T04:07:02.741Z,14.20
2022-09-24T04:09:33.743Z,14.20
2022-09-24T04:12:06.600Z,14.10
2022-09-24T04:14:37.806Z,14.20
2022-09-24T04:17:08.351Z,14.20
2022-09-24T04:19:40.265Z,14.10
2022-09-24T04:22:11.088Z,14.20
2022-09-24T04:24:41.761Z,14.10
2022-09-24T04:27:12.309Z,14.10
2022-09-24T04:29:42.878Z,14.10
2022-09-24T04:32:13.447Z,14.10
2022-09-24T04:34:43.944Z,14.10
2022-09-24T04:37:14.508Z,14.10
2022-09-24T04:39:45.080Z,14.10
2022-09-24T04:42:19.959Z,14.10
2022-09-24T04:44:55.327Z,14.10
2022-09-24T04:47:24.686Z,14.10
2022-09-24T04:49:55.369Z,14.10
2022-09-24T04:52:26.947Z,14.10
2022-09-24T04:54:58.296Z,14.10
2022-09-24T04:57:31.562Z,14.00
2022-09-24T05:00:02.345Z,14.10
2022-09-24T05:02:33.561Z,14.10
2022-09-24T05:05:04.409Z,14.10
2022-09-24T05:07:35.037Z,14.00
2022-09-24T05:10:06.704Z,14.10
2022-09-24T05:12:37.377Z,14.10
2022-09-24T05:15:10.394Z,14.10
2022-09-24T05:17:41.670Z,14.10
2022-09-24T05:20:13.264Z,14.10
2022-09-24T05:22:47.888Z,14.20
2022-09-24T05:25:19.979Z,14.10
2022-09-24T05:27:52.462Z,14.20
2022-09-24T05:30:25.420Z,14.10
2022-09-24T05:32:55.952Z,14.20
2022-09-24T05:35:26.534Z,14.20
2022-09-24T05:37:57.107Z,14.20
2022-09-24T05:40:45.463Z,14.20
2022-09-24T05:43:16.715Z,14.20
2022-09-24T05:45:49.224Z,14.30
2022-09-24T05:48:19.812Z,14.30
2022-09-24T05:50:52.217Z,14.30
2022-09-24T05:53:23.573Z,14.30
2022-09-24T05:55:54.359Z,14.30
2022-09-24T05:58:25.109Z,14.40
2022-09-24T06:00:55.767Z,14.30
2022-09-24T06:03:26.349Z,14.40
2022-09-24T06:05:58.985Z,14.40
2022-09-24T06:08:30.483Z,14.40
2022-09-24T06:11:02.716Z,14.50
2022-09-24T06:13:35.209Z,14.50
2022-09-24T06:16:08.926Z,14.50
2022-09-24T06:18:41.801Z,14.50
2022-09-24T06:21:14.476Z,14.50
2022-09-24T06:23:46.335Z,14.40
2022-09-24T06:26:16.943Z,14.50
2022-09-24T06:28:47.635Z,14.60
2022-09-24T06:31:18.383Z,14.60
2022-09-24T06:33:49.146Z,14.60
2022-09-24T06:36:19.817Z,14.60
2022-09-24T06:38:53.965Z,14.60
2022-09-24T06:41:24.696Z,14.50
2022-09-24T06:43:57.149Z,14.50
2022-09-24T06:46:28.179Z,14.60
2022-09-24T06:48:58.928Z,14.60
2022-09-24T06:51:29.658Z,14.60
2022-09-24T06:54:00.312Z,14.60
2022-09-24T06:56:31.970Z,14.60
2022-09-24T06:59:02.727Z,14.70
2022-09-24T07:01:33.578Z,14.70
2022-09-24T07:04:05.110Z,14.70
2022-09-24T07:06:56.462Z,14.80
2022-09-24T07:09:27.275Z,14.90
2022-09-24T07:12:01.082Z,14.90
2022-09-24T07:14:31.715Z,14.90
2022-09-24T07:17:02.336Z,15.00
2022-09-24T07:19:33.058Z,15.10
2022-09-24T07:22:03.920Z,15.10
2022-09-24T07:24:34.625Z,15.10
2022-09-24T07:27:08.120Z,15.20
2022-09-24T07:29:39.350Z,15.20
2022-09-24T07:32:10.223Z,15.20
2022-09-24T07:34:41.731Z,15.30
2022-09-24T07:37:12.402Z,15.40
2022-09-24T07:39:43.496Z,15.40
2022-09-24T07:42:14.152Z,15.40
2022-09-24T07:44:45.376Z,15.40
2022-09-24T07:47:16.433Z,15.50
2022-09-24T07:49:47.130Z,15.60
2022-09-24T07:52:18.273Z,15.60
2022-09-24T07:54:49.765Z,15.70
2022-09-24T07:57:20.399Z,15.70
2022-09-24T07:59:51.717Z,15.70
2022-09-24T08:02:22.744Z,15.70
2022-09-24T08:04:53.364Z,15.90
2022-09-24T08:07:23.986Z,16.00
2022-09-24T08:09:54.688Z,16.10
2022-09-24T08:12:27.983Z,16.30
2022-09-24T08:14:58.581Z,16.40
2022-09-24T08:17:29.358Z,16.50
2022-09-24T08:20:00.040Z,16.40
2022-09-24T08:22:31.608Z,16.50
2022-09-24T08:25:03.426Z,16.40
2022-09-24T08:27:35.718Z,16.50
2022-09-24T08:30:07.861Z,16.50
2022-09-24T08:32:38.597Z,16.50
2022-09-24T08:35:11.274Z,16.60
2022-09-24T08:37:41.961Z,16.60
2022-09-24T08:40:17.554Z,16.70
2022-09-24T08:42:51.247Z,16.70
2022-09-24T08:48:25.753Z,16.80
2022-09-24T08:51:01.044Z,16.80
2022-09-24T08:53:34.822Z,16.70
2022-09-24T08:56:07.645Z,16.70
2022-09-24T08:58:44.727Z,16.70
2022-09-24T09:01:23.176Z,16.60
2022-09-24T09:03:57.456Z,16.50
2022-09-24T09:06:56.069Z,16.70
2022-09-24T09:09:30.238Z,16.70
2022-09-24T09:12:03.693Z,16.80
2022-09-24T09:17:21.399Z,16.90
2022-09-24T09:19:56.933Z,16.80
2022-09-24T09:22:31.139Z,16.60
2022-09-24T09:25:06.184Z,16.60
2022-09-24T09:27:36.819Z,16.60
2022-09-24T09:30:15.751Z,16.60
2022-09-24T09:32:58.244Z,16.60
2022-09-24T09:35:33.560Z,16.60
2022-09-24T09:38:07.600Z,16.90
2022-09-24T09:40:41.614Z,17.00
2022-09-24T09:43:14.952Z,17.00
2022-09-24T09:45:49.638Z,17.10
2022-09-24T09:48:22.584Z,17.20
2022-09-24T09:50:55.682Z,17.20
2022-09-24T09:53:28.244Z,17.30
2022-09-24T09:56:00.962Z,17.20
2022-09-24T09:58:34.233Z,17.20
2022-09-24T10:01:11.165Z,17.40
2022-09-24T10:03:51.224Z,17.60
2022-09-24T10:06:27.967Z,17.90
2022-09-24T10:09:08.629Z,17.80
2022-09-24T10:11:39.281Z,17.70
2022-09-24T10:14:13.446Z,18.20
2022-09-24T10:16:47.013Z,18.30
2022-09-24T10:19:23.844Z,18.70
2022-09-24T10:21:57.674Z,19.00
2022-09-24T10:24:30.234Z,19.10
2022-09-24T10:27:00.988Z,18.70
2022-09-24T10:29:51.628Z,19.20
2022-09-24T10:32:23.785Z,19.70
2022-09-24T10:35:23.198Z,19.80
2022-09-24T10:37:55.681Z,19.90
2022-09-24T10:40:30.046Z,19.60
2022-09-24T10:43:05.493Z,19.60
2022-09-24T10:45:56.336Z,19.80
2022-09-24T10:48:29.483Z,19.80
2022-09-24T10:53:47.752Z,19.60
2022-09-24T10:56:23.823Z,19.70
2022-09-24T10:59:18.361Z,18.90
2022-09-24T11:01:52.591Z,18.90
2022-09-24T11:04:38.586Z,18.80
2022-09-24T11:07:33.332Z,18.50
2022-09-24T11:10:10.433Z,18.70
2022-09-24T11:12:44.847Z,18.90
2022-09-24T11:15:25.392Z,18.90
2022-09-24T11:20:43.411Z,19.00
2022-09-24T11:23:26.113Z,18.90
2022-09-24T11:26:03.179Z,19.10
2022-09-24T11:28:44.976Z,19.00
2022-09-24T11:31:18.847Z,19.00
2022-09-24T11:34:10.523Z,19.30
2022-09-24T11:36:50.011Z,19.70
2022-09-24T11:39:28.904Z,19.90
2022-09-24T11:42:03.892Z,20.40
2022-09-24T11:47:40.807Z,20.90
2022-09-24T11:50:21.834Z,20.90
2022-09-24T11:52:56.300Z,21.80
2022-09-24T11:55:32.372Z,21.40
2022-09-24T11:58:08.244Z,21.00
2022-09-24T12:00:42.100Z,20.90
2022-09-24T12:03:22.173Z,21.00
2022-09-24T12:05:53.873Z,21.60
2022-09-24T12:08:29.157Z,21.40
2022-09-24T12:11:03.494Z,21.00
2022-09-24T12:13:37.904Z,21.60
2022-09-24T12:16:12.270Z,21.60
2022-09-24T12:18:46.051Z,21.00
2022-09-24T12:21:19.491Z,20.80
2022-09-24T12:23:52.118Z,20.60
2022-09-24T12:26:25.523Z,20.00
2022-09-24T12:29:17.727Z,20.30
2022-09-24T12:32:10.732Z,20.20
2022-09-24T12:34:45.976Z,20.90
2022-09-24T12:37:19.561Z,21.40
2022-09-24T12:39:56.324Z,22.00
2022-09-24T12:42:31.373Z,22.50
2022-09-24T12:45:03.556Z,21.90
2022-09-24T12:50:23.932Z,21.80
2022-09-24T12:55:33.577Z,22.60
2022-09-24T12:58:06.769Z,23.30
2022-09-24T13:00:42.389Z,23.10
2022-09-24T13:03:35.064Z,23.40
2022-09-24T13:06:08.833Z,23.00
2022-09-24T13:08:41.468Z,22.70
2022-09-24T13:11:31.034Z,23.90
2022-09-24T13:14:09.897Z,23.90
2022-09-24T13:16:43.435Z,23.90
2022-09-24T13:19:28.135Z,23.50
2022-09-24T13:22:01.555Z,23.60
2022-09-24T13:24:35.871Z,24.00
2022-09-24T13:30:17.996Z,23.80
2022-09-24T13:32:53.017Z,23.80
2022-09-24T13:35:28.154Z,23.20
2022-09-24T13:38:02.676Z,23.00
2022-09-24T13:40:36.961Z,23.60
2022-09-24T13:43:11.777Z,24.20
2022-09-24T13:48:25.806Z,24.50
2022-09-24T13:50:56.980Z,24.10
2022-09-24T13:53:30.875Z,23.10
2022-09-24T13:56:04.906Z,23.50
2022-09-24T13:58:38.444Z,23.60
2022-09-24T14:01:16.257Z,24.10
2022-09-24T14:03:54.869Z,24.40
2022-09-24T14:06:34.195Z,24.80
2022-09-24T14:09:06.455Z,23.80
2022-09-24T14:11:38.210Z,24.80
2022-09-24T14:14:16.594Z,25.60
2022-09-24T14:16:47.210Z,24.10
2022-09-24T14:19:18.696Z,23.40
2022-09-24T14:21:52.292Z,22.70
2022-09-24T14:24:26.091Z,23.80
2022-09-24T14:26:59.306Z,23.40
2022-09-24T14:29:32.912Z,23.40
2022-09-24T14:32:06.285Z,23.60
2022-09-24T14:34:39.057Z,23.20
2022-09-24T14:40:03.061Z,22.50
2022-09-24T14:42:38.356Z,21.90
2022-09-24T14:45:11.859Z,21.70
2022-09-24T14:47:42.529Z,21.60
2022-09-24T14:50:35.789Z,21.50
2022-09-24T14:53:14.814Z,21.40
2022-09-24T14:55:46.657Z,21.10
2022-09-24T15:01:17.713Z,20.70
2022-09-24T15:03:50.893Z,20.50
2022-09-24T15:06:24.680Z,20.50
2022-09-24T15:08:58.811Z,20.40
2022-09-24T15:11:31.668Z,20.40
2022-09-24T15:14:04.879Z,20.30
2022-09-24T15:16:37.839Z,20.00
2022-09-24T15:19:20.880Z,20.10
2022-09-24T15:21:53.024Z,20.10
2022-09-24T15:24:25.346Z,19.80
2022-09-24T15:27:04.598Z,19.90
2022-09-24T15:29:35.693Z,19.90
2022-09-24T15:32:12.787Z,19.70
2022-09-24T15:34:43.358Z,19.70
2022-09-24T15:39:53.373Z,19.70
2022-09-24T15:42:26.520Z,19.70
2022-09-24T15:44:58.630Z,19.60
2022-09-24T15:47:29.251Z,19.30
2022-09-24T15:50:00.179Z,19.10
2022-09-24T15:52:33.257Z,18.90
2022-09-24T15:55:07.600Z,19.00
2022-09-24T15:57:38.212Z,19.00
2022-09-24T16:00:15.018Z,19.00
2022-09-24T16:02:50.146Z,19.00
2022-09-24T16:05:21.379Z,19.00
2022-09-24T16:07:52.205Z,18.80
2022-09-24T16:10:22.945Z,18.70
2022-09-24T16:12:53.712Z,18.80
2022-09-24T16:15:25.249Z,18.70
2022-09-24T16:17:56.052Z,18.50
2022-09-24T16:20:27.306Z,18.40
2022-09-24T16:22:58.089Z,18.30
2022-09-24T16:25:28.999Z,18.10
2022-09-24T16:28:01.140Z,18.10
2022-09-24T16:30:36.218Z,18.10
2022-09-24T16:33:04.506Z,17.90
2022-09-24T16:35:35.969Z,17.80
2022-09-24T16:38:07.135Z,17.70
2022-09-24T16:40:38.559Z,17.50
2022-09-24T16:43:09.470Z,17.40
2022-09-24T16:45:42.210Z,17.30
2022-09-24T16:48:14.857Z,17.30
2022-09-24T16:50:45.650Z,17.40
2022-09-24T16:53:16.918Z,17.30
2022-09-24T16:55:47.869Z,17.30
2022-09-24T16:58:18.534Z,17.20
2022-09-24T17:00:49.231Z,17.10
2022-09-24T17:03:20.429Z,17.10
2022-09-24T17:08:53.106Z,17.10
2022-09-24T17:11:24.605Z,17.10
2022-09-24T17:13:55.329Z,16.90
2022-09-24T17:16:26.457Z,16.80
2022-09-24T17:18:57.436Z,16.80
2022-09-24T17:21:28.070Z,16.80
2022-09-24T17:23:59.578Z,16.70
2022-09-24T17:26:31.472Z,16.70
2022-09-24T17:29:02.746Z,16.50
2022-09-24T17:31:34.135Z,16.40
2022-09-24T17:34:06.530Z,16.30
2022-09-24T17:36:38.010Z,16.30
2022-09-24T17:39:09.514Z,16.30
2022-09-24T17:41:40.764Z,16.30
2022-09-24T17:44:13.543Z,16.30
2022-09-24T17:46:44.470Z,16.30
2022-09-24T17:49:16.704Z,16.30
2022-09-24T17:51:49.260Z,16.30
2022-09-24T17:54:22.873Z,16.30
2022-09-24T17:56:54.231Z,16.40
2022-09-24T17:59:28.075Z,16.40
2022-09-24T18:02:01.217Z,16.50
2022-09-24T18:04:32.306Z,16.40
2022-09-24T18:07:03.089Z,16.40
2022-09-24T18:09:33.812Z,16.40
2022-09-24T18:12:04.821Z,16.40
2022-09-24T18:14:35.492Z,16.40
2022-09-24T18:17:06.607Z,16.40
2022-09-24T18:19:38.237Z,16.40
2022-09-24T18:22:09.475Z,16.40
2022-09-24T18:24:40.537Z,16.40
2022-09-24T18:27:11.701Z,16.40
2022-09-24T18:32:19.838Z,16.10
2022-09-24T18:34:50.488Z,15.90
2022-09-24T18:37:21.338Z,15.60
2022-09-24T18:39:51.985Z,15.40
2022-09-24T18:42:24.180Z,15.20
2022-09-24T18:44:54.914Z,15.10
2022-09-24T18:47:25.595Z,15.00
2022-09-24T18:49:56.267Z,14.70
2022-09-24T18:52:27.641Z,14.60
2022-09-24T18:54:58.281Z,14.60
2022-09-24T18:57:28.868Z,14.60
2022-09-24T18:59:59.527Z,14.60
2022-09-24T19:02:30.304Z,14.50
2022-09-24T19:05:01.120Z,14.40
2022-09-24T19:07:31.797Z,14.30
2022-09-24T19:10:02.615Z,14.10
2022-09-24T19:12:33.709Z,14.00
2022-09-24T19:15:04.696Z,13.80
2022-09-24T19:17:36.043Z,13.90
2022-09-24T19:20:08.030Z,13.80
2022-09-24T19:22:38.988Z,13.80
2022-09-24T19:25:11.473Z,13.50
2022-09-24T19:27:42.213Z,13.50
2022-09-24T19:30:14.362Z,13.50
2022-09-24T19:32:45.797Z,13.50
2022-09-24T19:35:16.776Z,13.60
2022-09-24T19:37:47.427Z,13.70
2022-09-24T19:40:19.636Z,13.70
2022-09-24T19:42:50.435Z,13.90
2022-09-24T19:45:21.155Z,13.90
2022-09-24T19:47:52.229Z,13.90
2022-09-24T19:53:07.138Z,13.70
2022-09-24T19:55:38.401Z,13.60
2022-09-24T19:58:09.323Z,13.70
2022-09-24T20:03:18.623Z,13.90
2022-09-24T20:05:49.669Z,13.90
2022-09-24T20:08:20.499Z,14.00
2022-09-24T20:10:51.384Z,14.00
2022-09-24T20:13:22.619Z,14.10
2022-09-24T20:15:59.657Z,14.20
2022-09-24T20:18:31.186Z,14.30
2022-09-24T20:21:06.502Z,14.20
2022-09-24T20:23:37.089Z,14.20
2022-09-24T20:26:26.210Z,14.20
2022-09-24T20:28:57.145Z,14.30
2022-09-24T20:31:28.614Z,14.40
2022-09-24T20:33:59.422Z,14.30
2022-09-24T20:36:30.050Z,14.50
2022-09-24T20:41:37.414Z,14.40
2022-09-24T20:46:46.476Z,14.40
2022-09-24T20:51:57.798Z,14.20
2022-09-24T20:54:30.232Z,14.30
2022-09-24T20:57:01.149Z,14.20
2022-09-24T20:59:31.813Z,14.10
2022-09-24T21:02:02.983Z,14.00
2022-09-24T21:04:36.086Z,14.10
2022-09-24T21:09:43.640Z,14.20
2022-09-24T21:14:52.442Z,14.20
2022-09-24T21:19:59.229Z,14.30
2022-09-24T21:22:30.207Z,14.30
2022-09-24T21:25:01.071Z,14.20
2022-09-24T21:27:31.612Z,14.30
2022-09-24T21:30:02.260Z,14.30
2022-09-24T21:32:33.365Z,14.30
2022-09-24T21:35:03.893Z,14.20
2022-09-24T21:37:34.465Z,14.00
2022-09-24T21:40:05.575Z,14.00
2022-09-24T21:42:36.164Z,14.00
2022-09-24T21:45:09.014Z,14.00
2022-09-24T21:47:39.952Z,14.00
2022-09-24T21:50:11.952Z,14.00
2022-09-24T21:52:43.877Z,14.10
2022-09-24T21:55:14.510Z,14.00
2022-09-24T21:57:45.096Z,14.00
2022-09-24T22:00:17.930Z,14.00
2022-09-24T22:02:48.735Z,14.00
2022-09-24T22:05:19.887Z,14.00
2022-09-24T22:07:50.691Z,14.00
2022-09-24T22:10:21.484Z,13.90
2022-09-24T22:12:52.123Z,13.90
2022-09-24T22:15:22.973Z,13.90
2022-09-24T22:17:53.514Z,13.90
2022-09-24T22:20:24.283Z,14.00
2022-09-24T22:22:54.835Z,14.00
2022-09-24T22:25:25.643Z,13.80
2022-09-24T22:27:56.640Z,13.70
2022-09-24T22:30:27.362Z,13.70
2022-09-24T22:32:57.935Z,13.70
2022-09-24T22:35:46.446Z,13.70
2022-09-24T22:38:17.528Z,13.70
2022-09-24T22:40:49.358Z,13.70
2022-09-24T22:43:20.172Z,13.60
2022-09-24T22:45:50.743Z,13.50
2022-09-24T22:48:21.374Z,13.60
2022-09-24T22:50:52.062Z,13.70
2022-09-24T22:53:23.574Z,13.70
2022-09-24T22:56:04.279Z,13.80
2022-09-24T22:58:35.551Z,13.70
2022-09-24T23:01:10.353Z,13.70
2022-09-24T23:03:41.252Z,13.80
2022-09-24T23:06:12.821Z,13.70
2022-09-24T23:08:44.434Z,13.70
2022-09-24T23:11:18.416Z,13.60
2022-09-24T23:13:51.242Z,13.50
2022-09-24T23:16:24.358Z,13.60
2022-09-24T23:18:56.303Z,13.60
2022-09-24T23:21:28.645Z,13.50
2022-09-24T23:24:01.848Z,13.50
2022-09-24T23:26:32.803Z,13.40
2022-09-24T23:29:03.712Z,13.50
2022-09-24T23:31:37.146Z,13.60
2022-09-24T23:34:08.476Z,13.60
2022-09-24T23:36:39.041Z,13.60
2022-09-24T23:39:09.613Z,13.60
2022-09-24T23:41:40.141Z,13.60
2022-09-24T23:44:11.043Z,13.60
2022-09-24T23:46:41.820Z,13.50
2022-09-24T23:49:12.374Z,13.50
2022-09-24T23:51:44.367Z,13.50
2022-09-24T23:54:14.876Z,13.40
2022-09-24T23:56:45.395Z,13.40
2022-09-24T23:59:16.011Z,13.40
